createdAt,value
2018-07-16T00:00:33.930Z,100786.61
2018-07-16T00:03:03.630Z,100784.39
2018-07-16T00:05:33.250Z,100786.00
2018-07-16T00:08:02.818Z,100790.30
2018-07-16T00:10:31.620Z,100787.29
2018-07-16T00:13:00.385Z,100788.90
2018-07-16T00:15:29.195Z,100787.19
2018-07-16T00:17:59.648Z,100789.30
2018-07-16T00:20:28.422Z,100790.01
2018-07-16T00:22:57.234Z,100791.86
2018-07-16T00:25:26.003Z,100793.18
2018-07-16T00:27:54.782Z,100792.89
2018-07-16T00:30:23.940Z,100795.86
2018-07-16T00:32:53.908Z,100794.75
2018-07-16T00:35:22.702Z,100794.42
2018-07-16T00:37:52.079Z,100794.95
2018-07-16T00:40:20.846Z,100800.34
2018-07-16T00:42:50.126Z,100803.56
2018-07-16T00:45:19.415Z,100803.23
2018-07-16T00:47:48.171Z,100810.55
2018-07-16T00:50:16.966Z,100807.46
2018-07-16T00:52:45.701Z,100815.82
2018-07-16T00:55:15.347Z,100810.06
2018-07-16T00:57:44.935Z,100819.30
2018-07-16T01:00:13.734Z,100816.55
2018-07-16T01:02:43.157Z,100815.64
2018-07-16T01:05:12.692Z,100813.41
2018-07-16T01:07:42.034Z,100807.89
2018-07-16T01:10:10.809Z,100817.34
2018-07-16T01:12:39.570Z,100815.66
2018-07-16T01:15:08.389Z,100814.55
2018-07-16T01:17:37.134Z,100809.11
2018-07-16T01:20:06.904Z,100810.42
2018-07-16T01:22:36.361Z,100806.55
2018-07-16T01:25:05.817Z,100811.39
2018-07-16T01:27:35.102Z,100811.64
2018-07-16T01:30:04.802Z,100809.73
2018-07-16T01:32:33.795Z,100808.38
2018-07-16T01:35:02.556Z,100807.95
2018-07-16T01:37:32.470Z,100810.02
2018-07-16T01:40:01.288Z,100801.98
2018-07-16T01:42:31.326Z,100799.73
2018-07-16T01:45:00.116Z,100802.88
2018-07-16T01:47:28.947Z,100810.71
2018-07-16T01:49:57.767Z,100815.26
2018-07-16T01:52:26.592Z,100819.08
2018-07-16T01:54:55.998Z,100820.14
2018-07-16T01:57:25.569Z,100814.73
2018-07-16T01:59:54.322Z,100814.73
2018-07-16T02:02:23.917Z,100815.55
2018-07-16T02:04:53.369Z,100817.38
2018-07-16T02:07:22.812Z,100813.48
2018-07-16T02:09:51.566Z,100809.87
2018-07-16T02:12:20.376Z,100813.59
2018-07-16T02:14:50.033Z,100810.25
2018-07-16T02:17:18.787Z,100813.20
2018-07-16T02:19:48.597Z,100811.02
2018-07-16T02:22:17.389Z,100809.94
2018-07-16T02:24:46.159Z,100809.64
2018-07-16T02:27:15.049Z,100812.06
2018-07-16T02:29:43.814Z,100809.41
2018-07-16T02:32:13.358Z,100812.11
2018-07-16T02:34:42.132Z,100819.15
2018-07-16T02:37:11.566Z,100819.15
2018-07-16T02:39:40.354Z,100819.44
2018-07-16T02:42:09.203Z,100818.96
2018-07-16T02:44:38.012Z,100818.38
2018-07-16T02:47:06.814Z,100818.91
2018-07-16T02:49:36.085Z,100822.49
2018-07-16T02:52:05.114Z,100824.38
2018-07-16T02:54:34.182Z,100821.67
2018-07-16T02:57:04.033Z,100826.56
2018-07-16T02:59:33.611Z,100829.22
2018-07-16T03:02:03.535Z,100821.95
2018-07-16T03:04:33.348Z,100819.43
2018-07-16T03:07:03.031Z,100823.78
2018-07-16T03:09:31.813Z,100822.61
2018-07-16T03:12:00.643Z,100827.37
2018-07-16T03:14:30.002Z,100822.47
2018-07-16T03:16:58.742Z,100826.56
2018-07-16T03:19:28.094Z,100830.23
2018-07-16T03:21:56.879Z,100831.94
2018-07-16T03:24:25.671Z,100824.95
2018-07-16T03:26:54.472Z,100828.61
2018-07-16T03:29:23.219Z,100828.94
2018-07-16T03:31:52.735Z,100830.09
2018-07-16T03:34:21.476Z,100830.07
2018-07-16T03:36:51.207Z,100833.86
2018-07-16T03:39:19.978Z,100830.83
2018-07-16T03:41:48.742Z,100820.34
2018-07-16T03:44:17.542Z,100824.88
2018-07-16T03:46:46.443Z,100829.94
2018-07-16T03:49:15.444Z,100827.63
2018-07-16T03:51:44.230Z,100829.10
2018-07-16T03:54:12.984Z,100833.33
2018-07-16T03:56:42.502Z,100824.91
2018-07-16T03:59:11.272Z,100826.13
2018-07-16T04:01:40.604Z,100819.42
2018-07-16T04:04:09.858Z,100829.70
2018-07-16T04:06:39.325Z,100827.54
2018-07-16T04:09:08.589Z,100828.28
2018-07-16T04:11:37.579Z,100828.76
2018-07-16T04:14:07.239Z,100829.20
2018-07-16T04:16:36.210Z,100826.59
2018-07-16T04:19:06.043Z,100825.12
2018-07-16T04:21:35.091Z,100827.41
2018-07-16T04:24:04.667Z,100834.23
2018-07-16T04:26:34.218Z,100825.17
2018-07-16T04:29:03.710Z,100831.31
2018-07-16T04:31:33.249Z,100831.42
2018-07-16T04:34:02.069Z,100838.39
2018-07-16T04:36:31.425Z,100840.66
2018-07-16T04:39:00.185Z,100846.44
2018-07-16T04:41:28.978Z,100842.36
2018-07-16T04:43:57.753Z,100844.55
2018-07-16T04:46:26.522Z,100848.38
2018-07-16T04:48:56.350Z,100845.34
2018-07-16T04:51:25.186Z,100851.08
2018-07-16T04:53:53.930Z,100846.44
2018-07-16T04:56:23.738Z,100853.02
2018-07-16T04:58:52.559Z,100858.75
2018-07-16T05:01:21.349Z,100859.30
2018-07-16T05:03:51.227Z,100849.45
2018-07-16T05:06:21.271Z,100850.00
2018-07-16T05:08:50.048Z,100849.18
2018-07-16T05:11:18.842Z,100848.62
2018-07-16T05:13:48.467Z,100850.02
2018-07-16T05:16:17.251Z,100848.36
2018-07-16T05:18:46.735Z,100844.53
2018-07-16T05:21:15.532Z,100846.98
2018-07-16T05:23:44.409Z,100848.08
2018-07-16T05:26:13.198Z,100846.98
2018-07-16T05:28:41.995Z,100844.28
2018-07-16T05:31:11.382Z,100851.38
2018-07-16T05:33:40.194Z,100850.29
2018-07-16T05:36:09.042Z,100855.20
2018-07-16T05:38:38.711Z,100845.34
2018-07-16T05:41:07.583Z,100848.36
2018-07-16T05:43:36.615Z,100845.08
2018-07-16T05:49:05.586Z,100840.17
2018-07-16T05:51:34.950Z,100843.69
2018-07-16T05:54:04.092Z,100843.16
2018-07-16T05:56:34.663Z,100846.16
2018-07-16T05:59:03.748Z,100845.03
2018-07-16T06:01:32.750Z,100842.48
2018-07-16T06:04:02.660Z,100830.95
2018-07-16T06:06:32.777Z,100831.16
2018-07-16T06:09:01.791Z,100836.58
2018-07-16T06:11:30.582Z,100838.40
2018-07-16T06:14:00.268Z,100830.88
2018-07-16T06:16:29.042Z,100828.38
2018-07-16T06:18:58.478Z,100829.73
2018-07-16T06:21:27.284Z,100830.01
2018-07-16T06:23:56.103Z,100833.31
2018-07-16T06:26:24.923Z,100831.13
2018-07-16T06:28:53.714Z,100831.64
2018-07-16T06:31:23.382Z,100829.09
2018-07-16T06:33:52.166Z,100825.98
2018-07-16T06:36:21.323Z,100822.59
2018-07-16T06:38:50.723Z,100821.95
2018-07-16T06:41:19.858Z,100824.00
2018-07-16T06:43:48.358Z,100822.48
2018-07-16T06:46:17.354Z,100828.48
2018-07-16T06:48:46.131Z,100817.66
2018-07-16T06:51:15.015Z,100823.41
2018-07-16T06:53:43.801Z,100822.74
2018-07-16T06:56:13.522Z,100819.98
2018-07-16T06:58:42.506Z,100814.30
2018-07-16T07:01:11.282Z,100803.98
2018-07-16T07:03:41.042Z,100807.19
2018-07-16T07:06:10.470Z,100808.27
2018-07-16T07:08:39.233Z,100809.84
2018-07-16T07:11:08.157Z,100800.77
2018-07-16T07:13:37.437Z,100803.91
2018-07-16T07:16:06.687Z,100796.92
2018-07-16T07:18:36.567Z,100790.67
2018-07-16T07:21:05.743Z,100787.98
2018-07-16T07:23:34.846Z,100789.19
2018-07-16T07:26:04.206Z,100791.97
2018-07-16T07:28:33.320Z,100791.33
2018-07-16T07:31:02.539Z,100786.84
2018-07-16T07:33:31.774Z,100785.05
2018-07-16T07:36:00.628Z,100788.97
2018-07-16T07:38:29.876Z,100789.84
2018-07-16T07:40:58.667Z,100785.34
2018-07-16T07:43:27.765Z,100795.19
2018-07-16T07:45:56.551Z,100794.32
2018-07-16T07:48:25.338Z,100796.80
2018-07-16T07:50:54.215Z,100791.91
2018-07-16T07:53:23.602Z,100797.34
2018-07-16T07:55:53.421Z,100789.81
2018-07-16T07:58:22.176Z,100786.63
2018-07-16T08:00:50.975Z,100786.27
2018-07-16T08:03:20.740Z,100781.14
2018-07-16T08:05:55.384Z,100775.59
2018-07-16T08:08:24.966Z,100778.72
2018-07-16T08:10:53.801Z,100772.97
2018-07-16T08:13:23.804Z,100781.41
2018-07-16T08:15:52.606Z,100769.72
2018-07-16T08:18:22.133Z,100769.21
2018-07-16T08:20:50.894Z,100768.95
2018-07-16T08:23:20.074Z,100772.16
2018-07-16T08:25:48.885Z,100766.14
2018-07-16T08:28:18.382Z,100767.84
2018-07-16T08:30:47.490Z,100770.37
2018-07-16T08:33:16.345Z,100774.04
2018-07-16T08:35:45.123Z,100764.80
2018-07-16T08:38:14.478Z,100772.36
2018-07-16T08:40:43.267Z,100771.20
2018-07-16T08:43:12.098Z,100771.41
2018-07-16T08:45:40.892Z,100771.81
2018-07-16T08:48:09.731Z,100757.91
2018-07-16T08:50:38.584Z,100763.65
2018-07-16T08:53:07.624Z,100768.55
2018-07-16T08:55:37.184Z,100774.25
2018-07-16T08:58:06.376Z,100771.42
2018-07-16T09:00:35.457Z,100762.66
2018-07-16T09:03:05.347Z,100762.83
2018-07-16T09:05:34.811Z,100765.59
2018-07-16T09:08:04.592Z,100767.90
2018-07-16T09:10:33.417Z,100761.91
2018-07-16T09:13:03.212Z,100759.19
2018-07-16T09:15:32.074Z,100760.00
2018-07-16T09:18:01.631Z,100758.86
2018-07-16T09:20:30.447Z,100756.66
2018-07-16T09:22:59.233Z,100752.11
2018-07-16T09:25:28.064Z,100746.34
2018-07-16T09:27:56.815Z,100747.14
2018-07-16T09:30:26.796Z,100747.88
2018-07-16T09:32:55.606Z,100749.20
2018-07-16T09:35:24.395Z,100750.09
2018-07-16T09:37:54.083Z,100748.95
2018-07-16T09:40:22.886Z,100749.01
2018-07-16T09:42:51.643Z,100752.83
2018-07-16T09:45:20.898Z,100739.77
2018-07-16T09:47:49.667Z,100749.09
2018-07-16T09:50:18.593Z,100745.35
2018-07-16T09:52:47.423Z,100749.71
2018-07-16T09:55:16.981Z,100747.72
2018-07-16T09:57:46.356Z,100744.85
2018-07-16T10:00:19.344Z,100735.16
2018-07-16T10:02:48.690Z,100734.74
2018-07-16T10:05:18.025Z,100734.48
2018-07-16T10:07:47.396Z,100727.11
2018-07-16T10:10:16.214Z,100733.37
2018-07-16T10:12:45.624Z,100728.64
2018-07-16T10:15:14.377Z,100729.84
2018-07-16T10:17:43.215Z,100719.14
2018-07-16T10:20:12.911Z,100723.52
2018-07-16T10:22:41.650Z,100722.08
2018-07-16T10:25:10.458Z,100721.26
2018-07-16T10:27:39.246Z,100716.72
2018-07-16T10:30:08.834Z,100725.72
2018-07-16T10:32:37.603Z,100724.27
2018-07-16T10:35:06.875Z,100725.80
2018-07-16T10:37:37.159Z,100717.37
2018-07-16T10:40:06.810Z,100721.66
2018-07-16T10:42:35.888Z,100718.23
2018-07-16T10:45:05.847Z,100703.40
2018-07-16T10:47:35.079Z,100704.25
2018-07-16T10:50:04.482Z,100701.87
2018-07-16T10:52:33.300Z,100704.91
2018-07-16T10:55:03.330Z,100703.77
2018-07-16T10:57:33.224Z,100702.63
2018-07-16T11:00:02.073Z,100695.50
2018-07-16T11:02:31.746Z,100696.45
2018-07-16T11:05:01.345Z,100700.33
2018-07-16T11:07:31.223Z,100695.47
2018-07-16T11:09:59.975Z,100683.48
2018-07-16T11:12:29.255Z,100690.31
2018-07-16T11:14:58.014Z,100680.23
2018-07-16T11:17:26.786Z,100675.50
2018-07-16T11:19:56.288Z,100675.63
2018-07-16T11:22:25.172Z,100671.64
2018-07-16T11:24:53.940Z,100666.91
2018-07-16T11:27:22.761Z,100673.53
2018-07-16T11:29:52.543Z,100668.32
2018-07-16T11:32:21.315Z,100660.58
2018-07-16T11:34:50.090Z,100648.45
2018-07-16T11:37:19.661Z,100665.62
2018-07-16T11:39:48.470Z,100665.29
2018-07-16T11:42:17.279Z,100668.19
2018-07-16T11:44:46.059Z,100665.86
2018-07-16T11:47:14.851Z,100663.45
2018-07-16T11:49:43.719Z,100668.89
2018-07-16T11:52:12.571Z,100664.05
2018-07-16T11:54:42.187Z,100653.48
2018-07-16T11:57:11.728Z,100653.48
2018-07-16T11:59:40.486Z,100649.33
2018-07-16T12:02:09.917Z,100649.31
2018-07-16T12:04:40.448Z,100651.30
2018-07-16T12:07:09.821Z,100662.51
2018-07-16T12:09:38.666Z,100648.27
2018-07-16T12:12:07.524Z,100659.72
2018-07-16T12:14:36.948Z,100651.40
2018-07-16T12:17:06.103Z,100644.24
2018-07-16T12:19:36.129Z,100640.31
2018-07-16T12:22:05.727Z,100630.48
2018-07-16T12:24:35.611Z,100638.48
2018-07-16T12:27:04.968Z,100628.51
2018-07-16T12:29:33.937Z,100636.04
2018-07-16T12:32:03.742Z,100630.28
2018-07-16T12:34:32.498Z,100623.55
2018-07-16T12:37:02.921Z,100622.02
2018-07-16T12:39:31.692Z,100633.13
2018-07-16T12:42:00.462Z,100625.80
2018-07-16T12:44:29.265Z,100619.97
2018-07-16T12:46:58.054Z,100619.54
2018-07-16T12:49:26.984Z,100614.30
2018-07-16T12:51:56.031Z,100613.66
2018-07-16T12:54:24.816Z,100612.07
2018-07-16T12:56:54.056Z,100604.38
2018-07-16T12:59:22.843Z,100598.55
2018-07-16T13:01:52.260Z,100589.63
2018-07-16T13:04:21.652Z,100600.31
2018-07-16T13:06:51.604Z,100599.19
2018-07-16T13:09:20.363Z,100585.05
2018-07-16T13:11:49.185Z,100593.21
2018-07-16T13:14:19.482Z,100582.45
2018-07-16T13:16:48.256Z,100590.34
2018-07-16T13:19:18.083Z,100573.02
2018-07-16T13:21:46.919Z,100574.86
2018-07-16T13:24:15.667Z,100572.59
2018-07-16T13:26:44.493Z,100566.80
2018-07-16T13:29:13.298Z,100563.52
2018-07-16T13:31:43.037Z,100573.47
2018-07-16T13:34:11.790Z,100573.40
2018-07-16T13:36:41.692Z,100570.73
2018-07-16T13:39:11.277Z,100566.89
2018-07-16T13:41:40.100Z,100564.88
2018-07-16T13:44:08.930Z,100560.87
2018-07-16T13:46:37.716Z,100565.55
2018-07-16T13:49:07.582Z,100562.27
2018-07-16T13:51:36.830Z,100542.41
2018-07-16T13:54:06.050Z,100549.88
2018-07-16T13:56:36.222Z,100559.13
2018-07-16T13:59:05.583Z,100545.52
2018-07-16T14:01:35.086Z,100549.23
2018-07-16T14:04:05.107Z,100544.59
2018-07-16T14:06:34.891Z,100542.69
2018-07-16T14:09:04.293Z,100537.34
2018-07-16T14:11:33.708Z,100542.52
2018-07-16T14:14:03.378Z,100538.76
2018-07-16T14:16:32.112Z,100533.98
2018-07-16T14:19:01.587Z,100535.37
2018-07-16T14:21:30.425Z,100538.23
2018-07-16T14:23:59.183Z,100535.55
2018-07-16T14:26:27.975Z,100532.52
2018-07-16T14:28:56.746Z,100532.31
2018-07-16T14:31:26.231Z,100527.31
2018-07-16T14:33:55.045Z,100522.41
2018-07-16T14:36:24.753Z,100525.45
2018-07-16T14:38:54.415Z,100526.00
2018-07-16T14:41:23.242Z,100527.39
2018-07-16T14:43:52.073Z,100519.30
2018-07-16T14:46:20.835Z,100516.77
2018-07-16T14:48:49.727Z,100525.66
2018-07-16T14:51:18.639Z,100518.38
2018-07-16T14:53:47.428Z,100518.44
2018-07-16T14:56:17.091Z,100511.88
2018-07-16T14:58:46.010Z,100514.39
2018-07-16T15:01:14.824Z,100523.02
2018-07-16T15:03:44.074Z,100510.60
2018-07-16T15:06:13.519Z,100512.30
2018-07-16T15:08:42.278Z,100510.28
2018-07-16T15:11:11.078Z,100509.94
2018-07-16T15:13:40.476Z,100517.66
2018-07-16T15:16:09.264Z,100510.24
2018-07-16T15:18:39.370Z,100518.16
2018-07-16T15:21:08.286Z,100510.50
2018-07-16T15:23:36.953Z,100508.55
2018-07-16T15:26:06.291Z,100502.92
2018-07-16T15:28:36.061Z,100516.11
2018-07-16T15:31:06.511Z,100516.36
2018-07-16T15:33:35.677Z,100525.45
2018-07-16T15:36:04.877Z,100521.98
2018-07-16T15:38:35.520Z,100522.57
2018-07-16T15:41:07.134Z,100522.33
2018-07-16T15:43:36.563Z,100516.67
2018-07-16T15:46:05.786Z,100524.31
2018-07-16T15:48:34.878Z,100510.89
2018-07-16T15:51:03.957Z,100503.43
2018-07-16T15:53:32.762Z,100500.73
2018-07-16T15:56:02.482Z,100495.32
2018-07-16T15:58:31.330Z,100498.66
2018-07-16T16:01:00.098Z,100492.28
2018-07-16T16:03:29.750Z,100492.89
2018-07-16T16:05:59.095Z,100488.19
2018-07-16T16:08:28.583Z,100493.76
2018-07-16T16:10:57.382Z,100492.31
2018-07-16T16:13:26.779Z,100496.54
2018-07-16T16:15:55.597Z,100500.08
2018-07-16T16:18:25.039Z,100493.00
2018-07-16T16:20:53.835Z,100490.14
2018-07-16T16:23:22.630Z,100492.60
2018-07-16T16:25:51.403Z,100505.09
2018-07-16T16:28:20.268Z,100494.76
2018-07-16T16:30:49.773Z,100492.19
2018-07-16T16:33:18.638Z,100493.24
2018-07-16T16:35:47.482Z,100501.22
2018-07-16T16:38:17.100Z,100501.30
2018-07-16T16:40:45.882Z,100497.96
2018-07-16T16:43:14.738Z,100506.14
2018-07-16T16:45:43.595Z,100499.73
2018-07-16T16:48:12.407Z,100506.88
2018-07-16T16:50:41.297Z,100499.95
2018-07-16T16:53:10.111Z,100504.73
2018-07-16T16:55:39.821Z,100499.11
2018-07-16T16:58:08.683Z,100503.66
2018-07-16T17:00:37.497Z,100501.37
2018-07-16T17:03:06.994Z,100501.70
2018-07-16T17:05:36.573Z,100508.17
2018-07-16T17:08:07.131Z,100504.33
2018-07-16T17:10:39.032Z,100510.58
2018-07-16T17:13:09.273Z,100503.69
2018-07-16T17:15:38.067Z,100511.52
2018-07-16T17:18:07.635Z,100512.80
2018-07-16T17:20:36.464Z,100506.17
2018-07-16T17:23:06.208Z,100511.97
2018-07-16T17:25:35.371Z,100516.97
2018-07-16T17:28:04.565Z,100513.28
2018-07-16T17:30:34.736Z,100518.67
2018-07-16T17:33:03.833Z,100527.53
2018-07-16T17:35:33.902Z,100523.92
2018-07-16T17:38:03.668Z,100519.46
2018-07-16T17:40:32.494Z,100531.95
2018-07-16T17:43:01.275Z,100525.73
2018-07-16T17:45:30.043Z,100536.13
2018-07-16T17:47:58.797Z,100538.39
2018-07-16T17:50:27.695Z,100538.37
2018-07-16T17:52:56.515Z,100542.94
2018-07-16T17:55:25.867Z,100544.23
2018-07-16T17:57:55.296Z,100549.94
2018-07-16T18:00:24.143Z,100558.36
2018-07-16T18:02:53.686Z,100552.88
2018-07-16T18:05:23.126Z,100551.11
2018-07-16T18:07:53.167Z,100560.09
2018-07-16T18:10:22.043Z,100558.94
2018-07-16T18:12:51.488Z,100563.11
2018-07-16T18:15:20.267Z,100560.23
2018-07-16T18:17:50.007Z,100558.66
2018-07-16T18:20:18.796Z,100566.19
2018-07-16T18:22:47.553Z,100563.92
2018-07-16T18:25:16.439Z,100568.73
2018-07-16T18:27:45.164Z,100572.13
2018-07-16T18:30:14.770Z,100574.42
2018-07-16T18:32:43.530Z,100575.85
2018-07-16T18:35:12.303Z,100581.47
2018-07-16T18:37:42.870Z,100582.23
2018-07-16T18:40:11.535Z,100592.45
2018-07-16T18:42:40.326Z,100589.91
2018-07-16T18:45:09.136Z,100594.14
2018-07-16T18:47:37.890Z,100595.40
2018-07-16T18:50:07.939Z,100596.02
2018-07-16T18:52:36.773Z,100600.45
2018-07-16T18:55:06.646Z,100598.59
2018-07-16T18:57:36.431Z,100606.09
2018-07-16T19:00:06.576Z,100607.20
2018-07-16T19:02:36.237Z,100610.59
2018-07-16T19:05:06.061Z,100615.94
2018-07-16T19:07:36.221Z,100614.34
2018-07-16T19:10:05.526Z,100613.00
2018-07-16T19:12:36.276Z,100621.21
2018-07-16T19:15:11.071Z,100612.37
2018-07-16T19:17:39.867Z,100612.36
2018-07-16T19:20:09.444Z,100615.98
2018-07-16T19:22:38.254Z,100624.60
2018-07-16T19:25:07.063Z,100635.67
2018-07-16T19:27:36.402Z,100639.17
2018-07-16T19:30:06.544Z,100635.42
2018-07-16T19:32:35.647Z,100634.95
2018-07-16T19:35:04.959Z,100634.17
2018-07-16T19:37:35.753Z,100643.73
2018-07-16T19:40:05.351Z,100640.94
2018-07-16T19:42:34.614Z,100637.89
2018-07-16T19:45:03.849Z,100638.84
2018-07-16T19:47:32.653Z,100647.36
2018-07-16T19:50:01.741Z,100643.42
2018-07-16T19:52:30.669Z,100640.72
2018-07-16T19:55:00.796Z,100647.03
2018-07-16T19:57:30.163Z,100645.81
2018-07-16T19:59:58.936Z,100647.64
2018-07-16T20:02:28.606Z,100646.67
2018-07-16T20:04:58.224Z,100652.35
2018-07-16T20:07:27.884Z,100652.58
2018-07-16T20:09:56.783Z,100653.66
2018-07-16T20:12:32.552Z,100660.15
2018-07-16T20:15:02.203Z,100659.03
2018-07-16T20:17:31.378Z,100660.58
2018-07-16T20:20:01.952Z,100657.43
2018-07-16T20:22:30.919Z,100660.56
2018-07-16T20:25:00.266Z,100658.82
2018-07-16T20:27:29.098Z,100657.87
2018-07-16T20:29:58.726Z,100665.66
2018-07-16T20:32:27.596Z,100665.58
2018-07-16T20:34:56.347Z,100663.77
2018-07-16T20:37:25.820Z,100665.57
2018-07-16T20:39:54.587Z,100662.14
2018-07-16T20:42:23.338Z,100668.09
2018-07-16T20:44:52.177Z,100668.52
2018-07-16T20:47:20.977Z,100661.55
2018-07-16T20:49:49.804Z,100666.34
2018-07-16T20:52:18.612Z,100668.09
2018-07-16T20:54:48.593Z,100670.34
2018-07-16T20:57:17.948Z,100667.73
2018-07-16T20:59:46.733Z,100670.00
2018-07-16T21:02:16.238Z,100671.48
2018-07-16T21:04:45.700Z,100677.02
2018-07-16T21:07:15.080Z,100669.98
2018-07-16T21:09:43.884Z,100675.51
2018-07-16T21:12:12.669Z,100678.64
2018-07-16T21:14:42.090Z,100676.22
2018-07-16T21:17:10.875Z,100679.05
2018-07-16T21:19:40.146Z,100679.72
2018-07-16T21:22:08.896Z,100681.16
2018-07-16T21:24:37.876Z,100684.83
2018-07-16T21:27:06.695Z,100687.67
2018-07-16T21:29:35.686Z,100687.48
2018-07-16T21:32:05.447Z,100690.28
2018-07-16T21:34:34.971Z,100687.59
2018-07-16T21:37:05.032Z,100688.19
2018-07-16T21:39:33.955Z,100690.68
2018-07-16T21:42:03.008Z,100691.83
2018-07-16T21:44:32.012Z,100693.22
2018-07-16T21:47:00.790Z,100692.97
2018-07-16T21:49:29.767Z,100693.30
2018-07-16T21:51:58.698Z,100688.40
2018-07-16T21:54:27.416Z,100694.46
2018-07-16T21:56:56.948Z,100699.39
2018-07-16T21:59:25.722Z,100701.91
2018-07-16T22:01:55.257Z,100698.06
2018-07-16T22:04:24.782Z,100700.28
2018-07-16T22:06:54.400Z,100696.75
2018-07-16T22:09:23.158Z,100697.62
2018-07-16T22:11:51.976Z,100695.47
2018-07-16T22:14:21.621Z,100696.88
2018-07-16T22:16:50.378Z,100698.78
2018-07-16T22:19:19.807Z,100696.09
2018-07-16T22:21:48.595Z,100694.72
2018-07-16T22:24:17.371Z,100695.26
2018-07-16T22:26:46.198Z,100696.34
2018-07-16T22:29:14.962Z,100698.27
2018-07-16T22:31:44.422Z,100699.91
2018-07-16T22:34:13.233Z,100701.28
2018-07-16T22:36:42.495Z,100699.91
2018-07-16T22:39:11.773Z,100702.91
2018-07-16T22:41:40.614Z,100700.44
2018-07-16T22:44:09.401Z,100708.82
2018-07-16T22:46:38.218Z,100706.38
2018-07-16T22:49:07.099Z,100704.98
2018-07-16T22:51:36.455Z,100702.53
2018-07-16T22:54:05.602Z,100701.13
2018-07-16T22:56:35.291Z,100697.30
2018-07-16T22:59:04.559Z,100697.27
2018-07-16T23:01:33.691Z,100702.72
2018-07-16T23:04:03.841Z,100703.77
2018-07-16T23:06:34.036Z,100704.86
2018-07-16T23:09:03.084Z,100702.38
2018-07-16T23:11:31.938Z,100703.16
2018-07-16T23:14:01.284Z,100702.90
2018-07-16T23:16:30.054Z,100701.22
2018-07-16T23:18:59.507Z,100698.18
2018-07-16T23:21:28.343Z,100697.61
2018-07-16T23:23:57.109Z,100697.30
2018-07-16T23:26:25.939Z,100692.10
2018-07-16T23:28:54.728Z,100694.81
2018-07-16T23:31:24.194Z,100698.03
2018-07-16T23:33:52.991Z,100701.84
2018-07-16T23:36:21.739Z,100697.72
2018-07-16T23:38:51.047Z,100702.02
2018-07-16T23:41:19.814Z,100699.23
2018-07-16T23:43:48.608Z,100701.92
2018-07-16T23:46:17.438Z,100695.36
2018-07-16T23:48:46.297Z,100702.66
2018-07-16T23:51:15.131Z,100700.73
2018-07-16T23:53:44.003Z,100697.14
2018-07-16T23:56:13.613Z,100701.19
2018-07-16T23:58:42.444Z,100691.88
